Time;durP1;ratioP1;P1;durP2;ratioP2;P2;SDS_P1;SDS_P2;PMS_P1;PMS_P2;Temp;Humidity;BMP_temperature;BMP_pressure;BME280_temperature;BME280_humidity;BME280_pressure;Samples;Min_cycle;Max_cycle;Signal;HPM_P1;HPM_P2
2022/11/30 00:01:35;;;;;;;13.77;12.43;;;21.70;88.60;;;;;;6208211;28;89157;-67
2022/11/30 00:04:37;;;;;;;13.98;12.57;;;21.60;88.80;;;;;;6183283;28;89182;-66
2022/11/30 00:07:39;;;;;;;14.35;12.95;;;21.60;88.80;;;;;;6185023;28;89394;-67
2022/11/30 00:10:42;;;;;;;14.55;13.07;;;21.60;88.80;;;;;;6182314;28;89054;-66
2022/11/30 00:13:45;;;;;;;14.15;12.75;;;21.60;88.90;;;;;;6208273;28;89165;-66
2022/11/30 00:16:49;;;;;;;14.10;12.70;;;21.60;89.00;;;;;;6201973;28;89320;-67
2022/11/30 00:19:51;;;;;;;13.73;12.30;;;21.60;89.10;;;;;;6188888;28;88422;-67
2022/11/30 00:22:55;;;;;;;13.85;12.43;;;21.50;89.10;;;;;;6197795;28;89143;-67
2022/11/30 00:26:00;;;;;;;14.05;12.68;;;21.50;89.10;;;;;;6189528;28;89341;-67
2022/11/30 00:29:03;;;;;;;13.32;12.02;;;21.50;89.30;;;;;;6203978;28;90111;-66
2022/11/30 00:32:06;;;;;;;13.00;11.75;;;21.50;89.30;;;;;;6206441;28;89231;-67
2022/11/30 00:35:08;;;;;;;13.52;12.23;;;21.50;89.10;;;;;;6194397;28;87994;-67
2022/11/30 00:38:10;;;;;;;13.80;12.40;;;21.50;89.30;;;;;;6205259;28;89110;-66
2022/11/30 00:41:13;;;;;;;13.13;11.80;;;21.50;89.10;;;;;;6203272;28;89248;-66
2022/11/30 00:44:15;;;;;;;13.45;12.15;;;21.50;89.30;;;;;;6204208;28;88397;-67
2022/11/30 00:47:18;;;;;;;13.10;11.77;;;21.40;89.30;;;;;;6196158;28;89281;-67
2022/11/30 00:50:20;;;;;;;13.10;11.80;;;21.50;89.10;;;;;;6205735;28;87441;-67
2022/11/30 00:53:23;;;;;;;13.52;12.13;;;21.50;89.40;;;;;;6193240;28;89203;-67
2022/11/30 00:56:25;;;;;;;12.98;11.60;;;21.40;89.30;;;;;;6191919;28;92119;-67
2022/11/30 00:59:27;;;;;;;12.68;11.38;;;21.40;89.20;;;;;;6211703;28;89035;-67
2022/11/30 01:02:30;;;;;;;13.23;11.93;;;21.40;89.30;;;;;;6187990;28;89662;-67
2022/11/30 01:05:33;;;;;;;12.80;11.55;;;21.40;89.30;;;;;;6187332;28;88063;-67
2022/11/30 01:08:35;;;;;;;12.80;11.60;;;21.40;89.40;;;;;;6194987;28;89305;-67
2022/11/30 01:11:37;;;;;;;12.88;11.68;;;21.40;89.50;;;;;;6203045;28;89261;-66
2022/11/30 01:14:39;;;;;;;12.93;11.57;;;21.30;89.40;;;;;;6186690;28;89239;-66
2022/11/30 01:17:43;;;;;;;13.48;12.07;;;21.40;89.40;;;;;;6192501;28;89126;-67
2022/11/30 01:20:45;;;;;;;12.98;11.68;;;21.40;89.40;;;;;;6194749;28;88360;-66
2022/11/30 01:23:47;;;;;;;13.38;12.07;;;21.30;89.20;;;;;;6193863;28;89181;-66
2022/11/30 01:26:50;;;;;;;12.98;11.68;;;21.40;89.30;;;;;;6194887;28;89194;-66
2022/11/30 01:29:51;;;;;;;12.02;10.93;;;21.30;89.20;;;;;;6189283;28;89043;-66
2022/11/30 01:32:55;;;;;;;12.13;10.93;;;21.30;89.30;;;;;;6196762;28;89228;-67
2022/11/30 01:36:01;;;;;;;12.20;11.02;;;21.30;89.20;;;;;;6196416;28;89068;-66
2022/11/30 01:39:07;;;;;;;12.10;10.90;;;21.20;89.20;;;;;;6204644;28;89043;-66
2022/11/30 01:42:14;;;;;;;13.48;12.18;;;21.30;89.40;;;;;;6192915;28;89103;-67
2022/11/30 01:45:16;;;;;;;12.60;11.40;;;21.30;89.30;;;;;;6182528;28;89625;-66
2022/11/30 01:48:20;;;;;;;12.40;11.10;;;21.20;89.40;;;;;;6207945;28;89207;-66
2022/11/30 01:51:22;;;;;;;12.43;11.23;;;21.20;89.50;;;;;;6204746;28;87578;-66
2022/11/30 01:54:27;;;;;;;11.68;10.57;;;21.20;89.40;;;;;;6207187;28;89012;-66
2022/11/30 01:57:34;;;;;;;12.43;11.23;;;21.20;89.20;;;;;;6200194;28;89536;-66
2022/11/30 02:00:37;;;;;;;11.57;10.45;;;21.20;89.40;;;;;;6200273;28;90369;-66
2022/11/30 02:03:49;;;;;;;11.77;10.68;;;21.20;89.40;;;;;;6214315;28;89119;-67
2022/11/30 02:06:51;;;;;;;12.27;11.07;;;21.20;89.10;;;;;;6193269;28;89550;-66
2022/11/30 02:09:53;;;;;;;12.18;10.90;;;21.20;89.20;;;;;;6210507;28;89355;-67
2022/11/30 02:13:16;;;;;;;11.18;10.18;;;21.20;89.20;;;;;;6202269;28;89496;-67
2022/11/30 02:16:26;;;;;;;14.38;11.52;;;21.20;89.30;;;;;;6190462;28;89284;-67
2022/11/30 02:20:14;;;;;;;11.23;10.13;;;21.10;89.30;;;;;;6208190;28;89107;-67
2022/11/30 02:23:53;;;;;;;11.18;10.18;;;21.10;89.30;;;;;;6189858;28;88455;-66
2022/11/30 02:27:13;;;;;;;11.35;10.25;;;21.10;89.20;;;;;;6187823;28;89080;-67
2022/11/30 02:30:20;;;;;;;10.98;9.98;;;21.10;89.40;;;;;;6190380;28;87534;-66
2022/11/30 02:33:27;;;;;;;11.40;10.30;;;21.10;89.50;;;;;;6193885;28;90109;-66
2022/11/30 02:36:30;;;;;;;11.50;10.35;;;21.10;89.50;;;;;;6203592;28;87920;-66
2022/11/30 02:39:32;;;;;;;12.00;10.82;;;21.10;89.40;;;;;;6191198;28;89220;-66
2022/11/30 02:42:34;;;;;;;11.30;10.20;;;21.10;89.40;;;;;;6183562;28;89345;-66
2022/11/30 02:45:44;;;;;;;10.93;9.93;;;21.10;89.20;;;;;;6186490;28;89196;-67
2022/11/30 02:48:53;;;;;;;11.32;10.18;;;21.10;89.20;;;;;;6196172;28;89508;-67
2022/11/30 02:51:56;;;;;;;10.90;9.90;;;21.10;89.40;;;;;;6194572;28;89285;-67
2022/11/30 02:55:02;;;;;;;10.82;9.82;;;21.00;89.20;;;;;;6195833;28;88458;-66
2022/11/30 02:58:04;;;;;;;10.85;9.85;;;21.00;89.20;;;;;;6198939;28;89246;-67
2022/11/30 03:01:07;;;;;;;11.55;10.48;;;21.00;89.20;;;;;;6212668;28;89470;-67
2022/11/30 03:04:09;;;;;;;10.70;9.70;;;21.00;89.30;;;;;;6203705;28;90591;-67
2022/11/30 03:07:11;;;;;;;11.23;10.15;;;21.00;89.20;;;;;;6202463;28;89383;-67
2022/11/30 03:10:13;;;;;;;10.90;9.82;;;21.00;89.30;;;;;;6202470;28;89186;-67
2022/11/30 03:13:15;;;;;;;11.00;9.93;;;21.00;89.40;;;;;;6192335;28;89300;-67
2022/11/30 03:16:19;;;;;;;10.93;9.93;;;21.00;89.40;;;;;;6206987;28;89219;-67
2022/11/30 03:19:21;;;;;;;11.20;10.10;;;21.00;89.20;;;;;;6207161;28;89362;-67
2022/11/30 03:22:23;;;;;;;10.35;9.35;;;21.00;89.20;;;;;;6192624;28;89232;-66
2022/11/30 03:25:25;;;;;;;11.05;9.95;;;21.00;89.20;;;;;;6205981;28;88560;-67
2022/11/30 03:28:27;;;;;;;10.88;9.88;;;20.90;89.10;;;;;;6194915;28;89142;-67
2022/11/30 03:31:31;;;;;;;10.65;9.65;;;21.00;89.20;;;;;;6194599;28;89208;-67
2022/11/30 03:34:33;;;;;;;10.75;9.70;;;20.90;89.10;;;;;;6199647;28;90138;-67
2022/11/30 03:37:35;;;;;;;10.65;9.57;;;20.90;90.00;;;;;;6189924;28;90015;-67
2022/11/30 03:40:37;;;;;;;10.23;9.23;;;20.90;89.20;;;;;;6206641;28;90258;-67
2022/11/30 03:43:39;;;;;;;10.70;9.70;;;20.90;89.20;;;;;;6218610;28;89327;-67
2022/11/30 03:46:43;;;;;;;10.15;9.23;;;20.90;89.30;;;;;;6200600;28;89175;-67
2022/11/30 03:49:45;;;;;;;10.70;9.70;;;20.80;89.40;;;;;;6184072;28;90833;-67
2022/11/30 03:52:47;;;;;;;10.32;9.32;;;20.90;89.40;;;;;;6195858;28;89531;-67
2022/11/30 03:55:53;;;;;;;10.25;9.30;;;20.80;89.40;;;;;;6191401;28;88521;-66
2022/11/30 03:58:55;;;;;;;9.52;8.63;;;20.80;89.40;;;;;;6206224;28;89229;-67
2022/11/30 04:01:58;;;;;;;10.32;9.43;;;20.90;89.40;;;;;;6206504;28;89197;-66
2022/11/30 04:05:00;;;;;;;10.32;9.32;;;20.90;89.40;;;;;;6205685;28;90030;-67
2022/11/30 04:08:02;;;;;;;10.45;9.45;;;20.80;89.20;;;;;;6205354;28;89268;-67
2022/11/30 04:11:05;;;;;;;10.23;9.30;;;20.80;89.20;;;;;;6199072;28;89215;-67
2022/11/30 04:14:08;;;;;;;9.98;9.05;;;20.80;89.20;;;;;;6199324;28;89179;-67
2022/11/30 04:17:12;;;;;;;11.40;10.02;;;20.80;89.20;;;;;;6199905;28;89226;-66
2022/11/30 04:20:14;;;;;;;9.57;8.68;;;20.80;88.90;;;;;;6194447;28;87960;-67
2022/11/30 04:23:16;;;;;;;9.65;8.75;;;20.80;88.80;;;;;;6193979;28;89050;-66
2022/11/30 04:26:18;;;;;;;9.18;8.38;;;20.80;88.80;;;;;;6205678;28;88548;-66
2022/11/30 04:29:20;;;;;;;9.65;8.75;;;20.80;88.80;;;;;;6199541;28;89330;-66
2022/11/30 04:32:24;;;;;;;9.35;8.45;;;20.80;88.80;;;;;;6199281;28;89323;-66
2022/11/30 04:35:26;;;;;;;9.10;8.30;;;20.80;88.80;;;;;;6202380;28;90170;-66
2022/11/30 04:38:28;;;;;;;9.30;8.35;;;20.80;88.80;;;;;;6204791;28;89616;-66
2022/11/30 04:41:30;;;;;;;8.90;8.10;;;20.90;88.70;;;;;;6212214;28;89261;-66
2022/11/30 04:44:32;;;;;;;9.40;8.50;;;20.90;88.60;;;;;;6196836;28;89059;-66
2022/11/30 04:47:36;;;;;;;9.23;8.35;;;20.90;88.50;;;;;;6203874;28;88002;-66
2022/11/30 04:50:38;;;;;;;8.45;7.70;;;20.90;88.40;;;;;;6193072;28;89739;-67
2022/11/30 04:53:40;;;;;;;8.63;7.82;;;20.90;88.30;;;;;;6185304;28;89302;-66
2022/11/30 04:56:42;;;;;;;9.10;8.20;;;20.90;88.30;;;;;;6200967;28;88339;-67
2022/11/30 04:59:44;;;;;;;8.70;7.82;;;20.90;88.20;;;;;;6204657;28;89130;-66
2022/11/30 05:02:48;;;;;;;8.75;7.95;;;21.00;88.20;;;;;;6205807;28;89254;-66
2022/11/30 05:05:50;;;;;;;8.90;8.00;;;21.00;88.20;;;;;;6192688;28;90355;-66
2022/11/30 05:08:52;;;;;;;8.90;8.10;;;21.00;88.10;;;;;;6211867;28;89227;-66
2022/11/30 05:11:54;;;;;;;10.02;8.10;;;21.00;88.10;;;;;;6191103;28;89127;-67
2022/11/30 05:14:56;;;;;;;8.40;7.70;;;21.00;88.00;;;;;;6193712;28;89123;-66
2022/11/30 05:18:00;;;;;;;8.90;8.00;;;21.00;88.00;;;;;;6203938;28;89349;-66
2022/11/30 05:21:03;;;;;;;8.60;7.80;;;21.10;88.00;;;;;;6199363;28;89653;-67
2022/11/30 05:24:05;;;;;;;8.90;8.10;;;21.10;87.90;;;;;;6201798;28;89261;-67
2022/11/30 05:27:07;;;;;;;8.70;7.80;;;21.10;87.80;;;;;;6186748;28;88485;-67
2022/11/30 05:30:11;;;;;;;8.60;7.80;;;21.10;87.80;;;;;;6204206;28;89187;-66
2022/11/30 05:33:15;;;;;;;8.40;7.60;;;21.10;87.70;;;;;;6200262;28;89332;-67
2022/11/30 05:36:17;;;;;;;8.60;7.80;;;21.20;87.80;;;;;;6193080;28;90167;-66
2022/11/30 05:39:19;;;;;;;8.57;7.78;;;21.20;87.70;;;;;;6197629;28;89434;-67
2022/11/30 05:42:21;;;;;;;8.40;7.60;;;21.20;87.70;;;;;;6190177;28;89365;-66
2022/11/30 05:45:23;;;;;;;7.60;6.90;;;21.20;87.70;;;;;;6184630;28;89318;-66
2022/11/30 05:48:27;;;;;;;8.65;7.85;;;21.20;87.60;;;;;;6198009;28;89078;-67
2022/11/30 05:51:28;;;;;;;8.40;7.50;;;21.20;87.50;;;;;;6190316;28;89315;-67
2022/11/30 05:54:30;;;;;;;8.23;7.40;;;21.20;87.40;;;;;;6181693;28;89125;-66
2022/11/30 05:57:35;;;;;;;8.77;7.43;;;21.20;87.50;;;;;;6204926;28;88459;-67
2022/11/30 06:00:37;;;;;;;17.35;7.32;;;21.30;87.80;;;;;;6182129;28;89090;-66
2022/11/30 06:03:41;;;;;;;9.73;7.57;;;21.30;87.70;;;;;;6189908;28;89471;-66
2022/11/30 06:06:43;;;;;;;8.07;7.28;;;21.20;87.60;;;;;;6184704;28;90583;-66
2022/11/30 06:09:45;;;;;;;9.68;7.68;;;21.20;87.60;;;;;;6193461;28;89129;-66
2022/11/30 06:12:47;;;;;;;8.98;6.80;;;21.30;87.60;;;;;;6180692;28;88048;-66
2022/11/30 06:15:49;;;;;;;8.00;7.07;;;21.30;87.50;;;;;;6194869;28;89123;-66
2022/11/30 06:18:53;;;;;;;8.80;7.65;;;21.30;87.50;;;;;;6189996;28;89284;-66
2022/11/30 06:21:55;;;;;;;8.70;7.30;;;21.30;87.50;;;;;;6195689;28;89363;-66
2022/11/30 06:24:57;;;;;;;7.97;7.18;;;21.30;87.40;;;;;;6203587;28;88308;-67
2022/11/30 06:27:59;;;;;;;9.25;7.25;;;21.30;88.30;;;;;;6189344;28;88603;-66
2022/11/30 06:31:01;;;;;;;8.10;7.30;;;21.30;87.30;;;;;;6203773;28;89432;-65
2022/11/30 06:34:05;;;;;;;8.05;7.18;;;21.30;87.30;;;;;;6203267;28;89110;-66
2022/11/30 06:37:07;;;;;;;9.60;7.22;;;21.30;87.30;;;;;;6203763;28;90232;-66
2022/11/30 06:40:11;;;;;;;8.95;7.15;;;21.40;87.40;;;;;;6199616;28;89144;-66
2022/11/30 06:43:13;;;;;;;7.18;6.47;;;21.30;87.20;;;;;;6195605;28;89223;-66
2022/11/30 06:46:15;;;;;;;7.70;6.82;;;21.30;87.20;;;;;;6188440;28;89205;-66
2022/11/30 06:49:19;;;;;;;8.35;7.32;;;21.40;88.10;;;;;;6196718;28;89393;-66
2022/11/30 06:52:21;;;;;;;9.68;7.40;;;21.30;87.10;;;;;;6197313;28;89282;-66
2022/11/30 06:55:23;;;;;;;7.35;6.65;;;21.40;87.20;;;;;;6185147;28;89304;-66
2022/11/30 06:58:25;;;;;;;7.65;6.95;;;21.40;87.20;;;;;;6184608;28;91140;-66
2022/11/30 07:01:27;;;;;;;7.13;6.43;;;21.40;87.20;;;;;;6183770;28;89302;-66
2022/11/30 07:04:30;;;;;;;7.45;6.75;;;21.40;87.10;;;;;;6203407;28;89151;-66
2022/11/30 07:07:32;;;;;;;7.90;6.47;;;21.40;87.10;;;;;;6206912;28;90085;-66
2022/11/30 07:10:38;;;;;;;7.38;6.57;;;21.40;87.10;;;;;;6202074;28;89392;-66
2022/11/30 07:13:40;;;;;;;7.63;6.93;;;21.40;87.10;;;;;;6197438;28;89229;-66
2022/11/30 07:16:42;;;;;;;8.18;7.38;;;21.40;87.10;;;;;;6205559;28;88127;-66
2022/11/30 07:19:46;;;;;;;9.00;7.30;;;21.40;87.00;;;;;;6207625;28;89153;-66
2022/11/30 07:22:48;;;;;;;6.80;6.20;;;21.40;87.00;;;;;;6199718;28;89084;-66
2022/11/30 07:26:05;;;;;;;7.25;6.55;;;21.40;87.00;;;;;;6189580;28;89348;-66
2022/11/30 07:29:07;;;;;;;7.40;6.70;;;21.40;86.90;;;;;;6208333;28;88960;-66
2022/11/30 07:32:09;;;;;;;6.60;5.93;;;21.40;86.90;;;;;;6207632;28;89213;-66
2022/11/30 07:35:12;;;;;;;7.22;6.53;;;21.40;86.90;;;;;;6203747;28;89201;-67
2022/11/30 07:38:14;;;;;;;8.00;6.82;;;21.40;86.90;;;;;;6198839;28;90471;-66
2022/11/30 07:41:16;;;;;;;7.13;6.43;;;21.50;87.00;;;;;;6206733;28;89179;-66
2022/11/30 07:44:18;;;;;;;7.18;6.47;;;21.40;86.90;;;;;;6182796;28;89635;-66
2022/11/30 07:47:20;;;;;;;6.57;5.97;;;21.50;87.00;;;;;;6195602;28;89628;-66
2022/11/30 07:50:24;;;;;;;7.03;6.35;;;21.40;86.90;;;;;;6197035;28;88882;-66
2022/11/30 07:53:26;;;;;;;7.13;6.43;;;21.40;86.90;;;;;;6182498;28;89325;-66
2022/11/30 07:56:29;;;;;;;6.93;6.32;;;21.50;86.90;;;;;;6196078;28;89929;-66
2022/11/30 07:59:31;;;;;;;6.88;6.28;;;21.50;86.90;;;;;;6196374;28;87439;-67
2022/11/30 08:02:32;;;;;;;7.32;6.63;;;21.50;86.80;;;;;;6184958;28;89170;-66
2022/11/30 08:05:36;;;;;;;6.70;6.10;;;21.50;86.80;;;;;;6183967;28;89072;-66
2022/11/30 08:08:39;;;;;;;7.38;6.57;;;21.50;86.90;;;;;;6192082;28;88974;-66
2022/11/30 08:11:41;;;;;;;6.95;6.13;;;21.50;86.90;;;;;;6194647;28;87790;-66
2022/11/30 08:14:43;;;;;;;6.72;6.13;;;21.50;86.90;;;;;;6213608;28;89287;-65
2022/11/30 08:17:48;;;;;;;7.15;6.10;;;21.50;86.90;;;;;;6206632;28;89162;-66
2022/11/30 08:20:58;;;;;;;7.30;6.60;;;21.50;86.80;;;;;;6194349;28;88978;-66
2022/11/30 08:24:00;;;;;;;7.28;6.57;;;21.50;87.70;;;;;;6193599;28;89083;-66
2022/11/30 08:27:02;;;;;;;6.55;5.95;;;21.50;86.70;;;;;;6199026;28;89292;-67
2022/11/30 08:30:06;;;;;;;6.45;5.85;;;21.50;86.70;;;;;;6192135;28;89752;-66
2022/11/30 08:33:08;;;;;;;6.57;5.95;;;21.50;86.70;;;;;;6196430;28;88043;-67
2022/11/30 08:36:13;;;;;;;6.75;6.05;;;21.50;86.70;;;;;;6187301;28;89143;-66
2022/11/30 08:39:15;;;;;;;7.60;6.85;;;21.50;86.70;;;;;;6194344;28;90100;-66
2022/11/30 08:42:17;;;;;;;7.05;6.35;;;21.50;86.70;;;;;;6182012;28;89175;-67
2022/11/30 08:45:19;;;;;;;6.97;6.28;;;21.50;87.60;;;;;;6183853;28;89243;-66
2022/11/30 08:48:21;;;;;;;7.15;6.50;;;21.50;86.60;;;;;;6204461;28;89199;-66
2022/11/30 08:51:24;;;;;;;6.70;6.10;;;21.50;86.60;;;;;;6184354;28;89153;-66
2022/11/30 08:54:27;;;;;;;7.20;6.50;;;21.50;86.60;;;;;;6189074;28;89431;-66
2022/11/30 08:57:30;;;;;;;7.13;6.50;;;21.50;86.60;;;;;;6193114;28;89148;-66
2022/11/30 09:00:32;;;;;;;7.22;6.53;;;21.50;86.60;;;;;;6189634;28;88348;-66
2022/11/30 09:03:34;;;;;;;7.30;6.60;;;21.50;86.50;;;;;;6185228;28;89809;-66
2022/11/30 09:06:38;;;;;;;7.25;6.55;;;21.50;86.50;;;;;;6204247;28;90677;-66
2022/11/30 09:09:40;;;;;;;7.90;6.88;;;21.60;86.50;;;;;;6193786;28;89127;-66
2022/11/30 09:12:43;;;;;;;6.80;6.20;;;21.60;86.50;;;;;;6184996;28;89326;-66
2022/11/30 09:15:45;;;;;;;6.72;6.13;;;21.60;86.40;;;;;;6193041;28;89142;-66
2022/11/30 09:18:47;;;;;;;6.90;6.20;;;21.50;86.40;;;;;;6195468;28;89377;-67
2022/11/30 09:21:51;;;;;;;6.88;6.25;;;21.60;86.40;;;;;;6205717;28;89313;-66
2022/11/30 09:24:53;;;;;;;6.85;6.25;;;21.60;87.30;;;;;;6195348;28;89380;-67
2022/11/30 09:27:55;;;;;;;6.85;6.15;;;21.60;87.30;;;;;;6194404;28;88001;-66
2022/11/30 09:31:01;;;;;;;6.90;6.30;;;21.60;86.40;;;;;;6194494;28;88780;-66
2022/11/30 09:34:03;;;;;;;6.55;5.95;;;21.60;86.40;;;;;;6186905;28;89122;-66
2022/11/30 09:37:07;;;;;;;7.88;6.80;;;21.60;86.40;;;;;;6204544;28;89153;-66
2022/11/30 09:40:11;;;;;;;6.90;6.30;;;21.60;86.40;;;;;;6205031;28;90201;-66
2022/11/30 09:43:22;;;;;;;6.43;5.90;;;21.60;86.30;;;;;;6195980;28;89018;-66
2022/11/30 09:46:29;;;;;;;6.88;6.18;;;21.60;86.30;;;;;;6184101;28;89226;-66
2022/11/30 09:49:34;;;;;;;6.65;6.00;;;21.60;86.20;;;;;;6204610;28;89280;-66
2022/11/30 09:52:41;;;;;;;6.80;6.20;;;21.60;86.20;;;;;;6184742;28;89417;-66
2022/11/30 09:55:44;;;;;;;6.60;6.00;;;21.60;86.20;;;;;;6188739;28;89204;-66
2022/11/30 09:58:48;;;;;;;6.85;6.25;;;21.60;86.20;;;;;;6205561;28;89198;-66
2022/11/30 10:01:50;;;;;;;7.35;6.50;;;21.60;86.20;;;;;;6205215;28;88441;-66
2022/11/30 10:04:52;;;;;;;7.55;6.25;;;21.60;86.10;;;;;;6195473;28;89144;-66
2022/11/30 10:08:12;;;;;;;7.18;6.47;;;21.60;86.10;;;;;;6192692;28;89213;-66
2022/11/30 10:11:49;;;;;;;6.75;6.15;;;21.60;86.10;;;;;;6180483;28;90270;-66
2022/11/30 10:15:25;;;;;;;6.85;6.25;;;21.60;86.00;;;;;;6193161;28;89042;-66
2022/11/30 10:18:36;;;;;;;7.00;6.35;;;21.60;86.10;;;;;;6163169;28;89204;-66
2022/11/30 10:21:51;;;;;;;6.70;6.10;;;21.60;86.00;;;;;;6196389;28;89099;-66
2022/11/30 10:25:11;;;;;;;6.97;6.30;;;21.60;86.00;;;;;;6190240;28;89304;-66
2022/11/30 10:28:18;;;;;;;6.53;5.93;;;21.60;85.90;;;;;;6207478;28;89221;-66
2022/11/30 10:31:27;;;;;;;6.80;6.20;;;21.70;86.10;;;;;;6207584;28;89145;-66
2022/11/30 10:34:34;;;;;;;7.25;6.55;;;21.60;85.90;;;;;;6209287;28;88751;-67
2022/11/30 10:37:39;;;;;;;6.90;6.20;;;21.70;86.00;;;;;;6208678;28;88160;-66
2022/11/30 10:40:47;;;;;;;6.57;5.97;;;21.60;86.00;;;;;;6190771;28;89793;-67
2022/11/30 10:43:54;;;;;;;6.88;6.22;;;21.70;86.00;;;;;;6184496;28;90157;-67
2022/11/30 10:47:00;;;;;;;6.40;5.80;;;21.70;86.00;;;;;;6200374;28;89664;-66
2022/11/30 10:50:04;;;;;;;7.10;6.20;;;21.70;86.00;;;;;;6194599;28;89211;-66
2022/11/30 10:53:06;;;;;;;7.28;6.55;;;21.70;86.00;;;;;;6195172;28;89498;-66
2022/11/30 10:56:12;;;;;;;7.18;6.43;;;21.70;86.00;;;;;;6207376;28;89490;-67
2022/11/30 10:59:19;;;;;;;6.47;5.85;;;21.70;86.10;;;;;;6196524;28;89529;-66
2022/11/30 11:02:37;;;;;;;6.80;6.20;;;21.60;85.90;;;;;;6196618;28;88940;-67
2022/11/30 11:05:40;;;;;;;6.63;6.03;;;21.60;86.00;;;;;;6198409;28;88315;-67
2022/11/30 11:08:44;;;;;;;6.80;6.10;;;21.70;86.00;;;;;;6206779;28;89137;-66
2022/11/30 11:11:54;;;;;;;8.77;7.10;;;21.70;86.00;;;;;;6184526;28;89159;-66
2022/11/30 11:15:08;;;;;;;6.38;5.88;;;21.70;86.00;;;;;;6206769;28;90117;-66
2022/11/30 11:18:22;;;;;;;6.40;5.90;;;21.70;86.00;;;;;;6207867;28;89094;-66
2022/11/30 11:21:25;;;;;;;6.65;6.05;;;21.70;85.90;;;;;;6195756;28;89413;-66
2022/11/30 11:24:28;;;;;;;6.85;6.18;;;21.60;85.90;;;;;;6205659;28;89631;-66
2022/11/30 11:27:33;;;;;;;6.28;5.68;;;21.70;85.90;;;;;;6199451;28;89154;-66
2022/11/30 11:30:37;;;;;;;7.30;6.60;;;21.70;85.90;;;;;;6199638;28;89177;-66
2022/11/30 11:33:50;;;;;;;7.40;6.65;;;21.70;85.90;;;;;;6205934;28;89487;-66
2022/11/30 11:37:06;;;;;;;7.20;6.47;;;21.70;85.90;;;;;;6194265;28;88794;-66
2022/11/30 11:40:15;;;;;;;7.10;6.45;;;21.70;85.80;;;;;;6198090;28;88057;-66
2022/11/30 11:43:19;;;;;;;6.97;6.28;;;21.60;85.70;;;;;;6192237;28;89346;-66
2022/11/30 11:46:21;;;;;;;7.10;6.50;;;21.70;85.80;;;;;;6187159;28;89953;-66
2022/11/30 11:49:26;;;;;;;6.97;6.28;;;21.70;85.70;;;;;;6202306;28;88478;-66
2022/11/30 11:52:28;;;;;;;6.53;5.93;;;21.70;85.70;;;;;;6202114;28;90690;-66
2022/11/30 11:55:30;;;;;;;6.55;6.03;;;21.70;85.70;;;;;;6187790;28;89187;-66
2022/11/30 11:58:40;;;;;;;6.93;6.28;;;21.70;85.70;;;;;;6198295;28;89542;-67
2022/11/30 12:01:50;;;;;;;6.75;6.15;;;21.70;85.70;;;;;;6198838;28;89220;-66
2022/11/30 12:04:55;;;;;;;6.57;5.95;;;21.70;85.70;;;;;;6197356;28;88476;-67
2022/11/30 12:08:07;;;;;;;6.68;6.07;;;21.70;85.70;;;;;;6186338;28;88658;-66
2022/11/30 12:11:14;;;;;;;7.10;6.40;;;21.70;85.70;;;;;;6183740;28;89127;-66
2022/11/30 12:14:19;;;;;;;6.38;5.78;;;21.70;85.70;;;;;;6197870;28;89092;-67
2022/11/30 12:17:42;;;;;;;7.00;6.30;;;21.70;85.80;;;;;;6206175;28;90304;-66
2022/11/30 12:20:54;;;;;;;7.32;6.63;;;21.70;85.70;;;;;;6206291;28;89088;-67
2022/11/30 12:24:13;;;;;;;6.93;6.22;;;21.70;85.70;;;;;;6201245;28;89100;-66
2022/11/30 12:27:22;;;;;;;7.05;6.35;;;21.70;85.80;;;;;;6193331;28;88124;-66
2022/11/30 12:30:32;;;;;;;7.35;6.65;;;21.70;85.70;;;;;;6181911;28;89693;-66
2022/11/30 12:33:47;;;;;;;6.95;6.25;;;21.70;85.70;;;;;;6197632;28;89526;-67
2022/11/30 12:37:01;;;;;;;7.07;6.38;;;21.70;85.70;;;;;;6185101;28;88051;-66
2022/11/30 12:40:17;;;;;;;6.57;5.90;;;21.70;85.70;;;;;;6206538;28;88445;-66
2022/11/30 12:43:29;;;;;;;6.50;5.90;;;21.70;85.70;;;;;;6200722;28;89142;-66
2022/11/30 12:46:40;;;;;;;6.70;6.10;;;21.70;85.70;;;;;;6200084;28;87961;-67
2022/11/30 12:49:55;;;;;;;6.78;6.18;;;21.70;85.70;;;;;;6195255;28;90179;-67
2022/11/30 12:53:07;;;;;;;6.43;5.75;;;21.70;85.70;;;;;;6200727;28;89476;-67
2022/11/30 12:56:22;;;;;;;6.78;6.10;;;21.70;85.70;;;;;;6195151;28;89195;-67
2022/11/30 12:59:30;;;;;;;6.97;6.28;;;21.70;85.70;;;;;;6193745;28;89400;-67
2022/11/30 13:03:04;;;;;;;7.32;6.63;;;21.80;85.70;;;;;;6184671;28;89241;-66
2022/11/30 13:06:09;;;;;;;6.22;5.63;;;21.80;85.70;;;;;;6188548;28;89661;-66
2022/11/30 13:09:25;;;;;;;6.90;6.30;;;21.80;85.70;;;;;;6185036;28;89288;-66
2022/11/30 13:12:34;;;;;;;7.13;6.43;;;21.70;85.70;;;;;;6191366;28;88113;-66
2022/11/30 13:15:38;;;;;;;6.78;6.07;;;21.70;85.70;;;;;;6203975;28;88757;-67
2022/11/30 13:18:42;;;;;;;6.57;5.97;;;21.70;85.60;;;;;;6194525;28;89071;-66
2022/11/30 13:21:51;;;;;;;6.38;5.82;;;21.80;85.60;;;;;;6205133;28;91338;-66
2022/11/30 13:25:02;;;;;;;7.07;6.47;;;21.70;85.50;;;;;;6203217;28;89175;-67
2022/11/30 13:28:14;;;;;;;6.57;5.97;;;21.80;85.70;;;;;;6192291;28;89084;-66
2022/11/30 13:31:23;;;;;;;6.90;6.30;;;21.80;85.50;;;;;;6205555;28;89404;-66
2022/11/30 13:34:28;;;;;;;6.55;5.95;;;21.80;85.50;;;;;;6204598;28;89306;-67
2022/11/30 13:37:31;;;;;;;6.55;5.95;;;21.80;85.50;;;;;;6199817;28;89237;-66
2022/11/30 13:40:33;;;;;;;6.80;6.20;;;21.80;85.60;;;;;;6198321;28;89210;-66
2022/11/30 13:43:41;;;;;;;6.85;6.25;;;21.80;85.60;;;;;;6204860;28;88572;-66
2022/11/30 13:46:49;;;;;;;7.13;6.15;;;21.70;85.50;;;;;;6204216;28;88794;-66
2022/11/30 13:49:56;;;;;;;6.68;6.07;;;21.80;85.60;;;;;;6195324;28;89237;-66
2022/11/30 13:53:09;;;;;;;6.68;6.00;;;21.80;85.60;;;;;;6208669;28;88954;-67
2022/11/30 13:56:35;;;;;;;6.40;5.75;;;21.80;85.60;;;;;;6207831;28;89124;-67
2022/11/30 13:59:46;;;;;;;6.50;5.90;;;21.70;85.50;;;;;;6207947;28;89239;-67
2022/11/30 14:02:53;;;;;;;6.45;5.85;;;21.80;85.60;;;;;;6206314;28;89093;-67
2022/11/30 14:05:57;;;;;;;7.10;6.43;;;21.80;85.60;;;;;;6195253;28;89237;-67
2022/11/30 14:08:59;;;;;;;6.32;5.72;;;21.80;85.60;;;;;;6205843;28;89201;-66
2022/11/30 14:12:49;;;;;;;6.65;6.05;;;21.80;85.60;;;;;;6186148;28;89284;-67
2022/11/30 14:15:55;;;;;;;6.45;5.85;;;21.80;85.60;;;;;;6188950;28;88383;-67
2022/11/30 14:18:57;;;;;;;7.38;6.40;;;21.80;85.50;;;;;;6196055;28;89180;-67
2022/11/30 14:22:03;;;;;;;6.38;5.78;;;21.80;85.50;;;;;;6199481;28;89259;-67
2022/11/30 14:25:13;;;;;;;6.22;5.65;;;21.80;85.50;;;;;;6207076;28;90760;-67
2022/11/30 14:28:18;;;;;;;6.57;5.97;;;21.80;85.50;;;;;;6204689;28;89920;-67
2022/11/30 14:31:24;;;;;;;6.30;5.70;;;21.80;85.50;;;;;;6203992;28;89345;-67
2022/11/30 14:34:30;;;;;;;6.30;5.70;;;21.80;85.50;;;;;;6205995;28;90630;-67
2022/11/30 14:37:41;;;;;;;6.47;5.85;;;21.80;85.50;;;;;;6202638;28;88767;-67
2022/11/30 14:40:50;;;;;;;6.57;5.93;;;21.80;85.50;;;;;;6202724;28;89595;-67
2022/11/30 14:44:05;;;;;;;6.93;6.22;;;21.80;85.50;;;;;;6198448;28;89515;-67
2022/11/30 14:47:14;;;;;;;6.25;5.65;;;21.80;85.50;;;;;;6201004;28;88112;-66
2022/11/30 14:50:23;;;;;;;6.72;6.13;;;21.80;85.50;;;;;;6199761;28;89337;-67
2022/11/30 14:53:43;;;;;;;6.45;5.85;;;21.80;85.50;;;;;;6208243;28;89152;-67
2022/11/30 14:56:48;;;;;;;6.55;5.95;;;21.80;85.50;;;;;;6187111;28;90092;-66
2022/11/30 14:59:53;;;;;;;6.57;5.97;;;21.80;85.50;;;;;;6200176;28;89202;-67
2022/11/30 15:02:55;;;;;;;6.30;5.72;;;21.80;85.50;;;;;;6200999;28;89186;-66
2022/11/30 15:05:59;;;;;;;6.03;5.53;;;21.80;85.40;;;;;;6190347;28;89139;-67
2022/11/30 15:09:04;;;;;;;5.80;5.30;;;21.80;85.50;;;;;;6194550;28;88118;-66
2022/11/30 15:12:06;;;;;;;6.53;5.90;;;21.80;85.50;;;;;;6194287;28;89630;-67
2022/11/30 15:15:17;;;;;;;5.80;5.30;;;21.80;85.40;;;;;;6201325;28;89601;-67
2022/11/30 15:18:21;;;;;;;6.20;5.60;;;21.80;85.40;;;;;;6209307;28;88499;-67
2022/11/30 15:21:26;;;;;;;5.88;5.38;;;21.80;85.40;;;;;;6195647;28;88285;-66
2022/11/30 15:24:29;;;;;;;6.38;5.78;;;21.80;85.40;;;;;;6206292;28;88176;-67
2022/11/30 15:27:31;;;;;;;6.53;5.93;;;21.80;85.50;;;;;;6198166;28;90873;-67
2022/11/30 15:30:38;;;;;;;6.22;5.63;;;21.80;85.50;;;;;;6188039;28;89210;-67
2022/11/30 15:33:42;;;;;;;5.80;5.30;;;21.80;85.50;;;;;;6206548;28;89105;-67
2022/11/30 15:36:45;;;;;;;6.30;5.70;;;21.70;85.40;;;;;;6206858;28;88746;-67
2022/11/30 15:39:54;;;;;;;7.10;6.13;;;21.70;85.50;;;;;;6207340;28;89147;-67
2022/11/30 15:42:56;;;;;;;6.80;5.97;;;21.70;85.50;;;;;;6204202;28;88635;-67
2022/11/30 15:45:59;;;;;;;5.78;5.28;;;21.70;85.50;;;;;;6196686;28;88991;-67
2022/11/30 15:49:07;;;;;;;6.30;5.60;;;21.70;85.50;;;;;;6195614;28;87322;-67
2022/11/30 15:52:17;;;;;;;5.82;5.32;;;21.70;85.50;;;;;;6206383;28;88066;-67
2022/11/30 15:55:43;;;;;;;5.72;5.22;;;21.70;85.50;;;;;;6206626;28;89160;-67
2022/11/30 15:59:00;;;;;;;6.45;5.82;;;21.70;85.50;;;;;;6194942;28;90052;-67
2022/11/30 16:02:07;;;;;;;5.90;5.40;;;21.70;85.60;;;;;;6207358;28;89014;-68